Time;durP1;ratioP1;P1;durP2;ratioP2;P2;SDS_P1;SDS_P2;PMS_P1;PMS_P2;Temp;Humidity;BMP_temperature;BMP_pressure;BME280_temperature;BME280_humidity;BME280_pressure;Samples;Min_cycle;Max_cycle;Signal;HPM_P1;HPM_P2
2021/03/31 00:02:24;;;;;;;13.48;6.28;;;;;;;16.46;48.15;101093.19;4391810;32;34878;-91
2021/03/31 00:04:52;;;;;;;13.18;6.62;;;;;;;16.44;48.28;101092.34;4379261;32;33898;-92
2021/03/31 00:07:19;;;;;;;12.60;6.43;;;;;;;16.44;48.53;101088.81;4392145;32;33181;-91
2021/03/31 00:09:46;;;;;;;11.68;6.75;;;;;;;16.34;48.77;101085.34;4392421;32;33441;-92
2021/03/31 00:12:14;;;;;;;11.07;6.50;;;;;;;16.30;48.96;101085.38;4379305;32;35453;-92
2021/03/31 00:14:41;;;;;;;12.55;6.50;;;;;;;16.13;49.35;101081.06;4354959;32;32542;-91
2021/03/31 00:17:09;;;;;;;13.20;7.18;;;;;;;16.22;49.18;101072.28;4367205;32;34774;-92
2021/03/31 00:19:37;;;;;;;11.10;6.72;;;;;;;16.15;49.40;101071.41;4379547;32;34041;-92
2021/03/31 00:22:04;;;;;;;12.52;7.40;;;;;;;16.08;49.64;101068.81;4379552;32;35097;-92
2021/03/31 00:24:32;;;;;;;11.27;6.70;;;;;;;16.12;49.45;101060.03;4392088;32;35136;-92
2021/03/31 00:26:59;;;;;;;11.12;7.18;;;;;;;16.02;49.56;101067.06;4379072;32;33659;-92
2021/03/31 00:29:26;;;;;;;11.50;7.43;;;;;;;15.93;49.90;101067.09;4379783;32;33790;-92
2021/03/31 00:31:54;;;;;;;11.32;6.93;;;;;;;15.85;49.87;101052.25;4379568;32;35522;-92
2021/03/31 00:34:21;;;;;;;11.55;7.57;;;;;;;15.81;49.85;101064.47;4367170;32;34649;-92
2021/03/31 00:36:49;;;;;;;9.57;6.72;;;;;;;15.81;49.88;101058.38;4379319;32;34252;-92
2021/03/31 00:39:16;;;;;;;12.40;6.78;;;;;;;15.70;49.96;101054.88;4379158;32;32905;-92
2021/03/31 00:41:43;;;;;;;14.32;7.18;;;;;;;15.52;50.52;101061.03;4354641;32;34901;-92
2021/03/31 00:44:11;;;;;;;12.70;7.07;;;;;;;15.20;51.44;101057.47;4391912;32;34236;-92
2021/03/31 00:46:38;;;;;;;21.37;7.68;;;;;;;15.34;51.19;101058.38;4379423;32;33890;-92
2021/03/31 00:49:06;;;;;;;9.70;6.80;;;;;;;15.22;51.22;101063.59;4391320;32;34268;-91
2021/03/31 00:51:34;;;;;;;17.80;8.00;;;;;;;15.19;51.18;101066.22;4391825;32;35365;-92
2021/03/31 00:54:02;;;;;;;12.88;7.55;;;;;;;15.09;51.24;101059.22;4391902;32;34774;-92
2021/03/31 00:56:30;;;;;;;13.10;7.30;;;;;;;15.07;51.34;101058.34;4391680;32;33340;-92
2021/03/31 00:58:58;;;;;;;14.45;7.03;;;;;;;14.95;51.76;101067.06;4391432;32;33780;-92
2021/03/31 01:01:25;;;;;;;10.68;7.10;;;;;;;14.91;51.93;101066.19;4379393;32;34271;-92
2021/03/31 01:03:52;;;;;;;13.43;6.85;;;;;;;15.06;51.54;101062.72;4366587;32;35326;-92
2021/03/31 01:06:20;;;;;;;15.25;8.20;;;;;;;15.12;51.24;101062.72;4391707;32;33391;-92
2021/03/31 01:08:47;;;;;;;13.68;6.57;;;;;;;14.83;51.81;101062.66;4392916;32;33752;-92
2021/03/31 01:11:29;;;;;;;12.30;7.20;;;;;;;14.76;51.76;101058.28;4368421;32;36137;-91
2021/03/31 01:14:05;;;;;;;11.23;7.05;;;;;;;14.64;51.94;101054.75;4380662;32;34332;-91
2021/03/31 01:17:05;;;;;;;12.23;6.78;;;;;;;14.55;52.00;101060.81;4380784;32;33793;-91
2021/03/31 01:19:54;;;;;;;12.65;7.20;;;;;;;14.60;51.81;101060.84;4377726;32;33274;-92
2021/03/31 01:22:37;;;;;;;15.50;8.40;;;;;;;14.48;51.96;101050.31;4380880;32;34887;-92
2021/03/31 01:25:14;;;;;;;11.82;6.93;;;;;;;14.49;51.86;101050.34;4380588;32;35099;-91
2021/03/31 01:28:09;;;;;;;17.10;7.87;;;;;;;14.43;51.92;101054.69;4380910;32;33484;-91
2021/03/31 01:31:23;;;;;;;13.55;7.25;;;;;;;14.47;52.00;101052.09;4380641;32;35154;-91
2021/03/31 01:34:00;;;;;;;13.62;7.20;;;;;;;14.34;52.42;101044.16;4377910;32;35745;-91
2021/03/31 01:36:29;;;;;;;12.77;7.57;;;;;;;14.19;52.54;101043.19;4393033;32;36047;-91
2021/03/31 01:39:03;;;;;;;15.25;8.43;;;;;;;14.24;52.31;101044.09;4393519;32;34075;-91
2021/03/31 01:41:31;;;;;;;11.43;7.10;;;;;;;14.03;52.63;101048.34;4368438;32;33362;-91
2021/03/31 01:44:00;;;;;;;14.23;7.55;;;;;;;13.86;53.03;101047.37;4368891;32;34277;-91
2021/03/31 01:46:29;;;;;;;14.25;7.85;;;;;;;13.83;53.05;101045.62;4367958;32;34759;-91
2021/03/31 01:49:00;;;;;;;13.77;7.43;;;;;;;13.84;53.10;101052.59;4380385;32;34137;-91
2021/03/31 01:51:29;;;;;;;14.02;7.35;;;;;;;13.70;53.26;101045.50;4381275;32;33629;-91
2021/03/31 01:53:57;;;;;;;12.85;7.30;;;;;;;13.78;52.88;101043.84;4393376;32;34301;-91
2021/03/31 01:56:26;;;;;;;11.55;6.70;;;;;;;13.52;53.29;101049.78;4393824;32;33973;-91
2021/03/31 01:58:55;;;;;;;13.52;6.97;;;;;;;13.59;53.04;101050.69;4382559;32;31887;-91
2021/03/31 02:01:22;;;;;;;13.30;7.45;;;;;;;13.66;52.74;101049.88;4397319;32;33941;-91
2021/03/31 02:03:52;;;;;;;12.30;7.15;;;;;;;13.74;52.52;101045.53;4381383;32;34691;-91
2021/03/31 02:06:19;;;;;;;13.30;6.80;;;;;;;13.74;52.49;101045.53;4393053;32;33841;-91
2021/03/31 02:08:47;;;;;;;11.98;6.47;;;;;;;13.67;52.56;101048.13;4380633;32;33552;-91
2021/03/31 02:11:25;;;;;;;12.18;7.15;;;;;;;13.47;52.79;101051.47;4393118;32;34003;-91
2021/03/31 02:13:52;;;;;;;11.52;6.57;;;;;;;13.32;53.07;101050.44;4392905;32;34465;-91
2021/03/31 02:16:20;;;;;;;11.70;6.20;;;;;;;13.37;53.07;101051.38;4392941;32;33267;-91
2021/03/31 02:18:53;;;;;;;10.20;6.70;;;;;;;13.45;52.60;101054.94;4392461;32;33706;-91
2021/03/31 02:21:21;;;;;;;11.05;6.95;;;;;;;13.44;52.66;101054.06;4380248;32;35502;-91
2021/03/31 02:23:50;;;;;;;9.98;6.78;;;;;;;13.17;53.24;101066.88;4380383;32;34486;-91
2021/03/31 02:26:17;;;;;;;10.63;6.72;;;;;;;13.29;53.11;101060.87;4393932;32;33840;-91
2021/03/31 02:28:45;;;;;;;11.43;6.12;;;;;;;13.26;53.25;101059.12;4393142;32;33155;-92
2021/03/31 02:31:15;;;;;;;10.90;6.53;;;;;;;13.21;53.35;101062.56;4380584;32;35780;-91
2021/03/31 02:33:44;;;;;;;11.32;6.47;;;;;;;13.13;53.72;101059.88;4380143;32;35433;-91
2021/03/31 02:36:15;;;;;;;11.65;6.47;;;;;;;13.06;53.88;101065.00;4393153;32;34450;-91
2021/03/31 02:38:43;;;;;;;11.47;6.57;;;;;;;13.10;53.66;101061.59;4392940;32;32898;-91
2021/03/31 02:41:11;;;;;;;10.27;6.47;;;;;;;12.79;54.13;101053.41;4392629;32;33643;-91
2021/03/31 02:43:42;;;;;;;16.55;7.55;;;;;;;12.71;54.39;101060.28;4380314;32;33917;-91
2021/03/31 02:46:16;;;;;;;10.80;6.70;;;;;;;12.89;54.10;101059.59;4392672;32;33749;-92
2021/03/31 02:48:44;;;;;;;13.38;7.20;;;;;;;12.83;54.28;101060.44;4368393;32;33658;-92
2021/03/31 02:51:12;;;;;;;11.02;6.12;;;;;;;12.91;53.95;101058.75;4367794;32;34850;-92
2021/03/31 02:53:40;;;;;;;9.50;6.30;;;;;;;12.85;54.02;101061.31;4380345;32;35525;-91
2021/03/31 02:56:09;;;;;;;12.82;6.80;;;;;;;12.78;54.39;101050.78;4380063;32;32919;-92
2021/03/31 02:58:38;;;;;;;11.23;6.62;;;;;;;12.73;54.21;101055.97;4379690;32;32801;-92
2021/03/31 03:01:07;;;;;;;12.15;6.78;;;;;;;12.85;53.95;101053.47;4355674;32;35157;-92
2021/03/31 03:03:34;;;;;;;9.70;6.37;;;;;;;12.66;54.32;101051.53;4392694;32;35213;-91
2021/03/31 03:06:04;;;;;;;11.68;6.75;;;;;;;12.54;54.66;101056.59;4379738;32;35493;-92
2021/03/31 03:08:31;;;;;;;13.73;7.28;;;;;;;12.58;54.58;101049.66;4379994;32;34073;-92
2021/03/31 03:11:00;;;;;;;12.57;7.03;;;;;;;12.27;55.34;101043.22;4367663;32;34248;-91
2021/03/31 03:13:29;;;;;;;14.40;6.55;;;;;;;12.26;55.34;101046.69;4380286;32;36006;-92
2021/03/31 03:15:57;;;;;;;13.62;7.32;;;;;;;12.23;55.25;101044.03;4392369;32;34276;-91
2021/03/31 03:18:25;;;;;;;13.50;6.97;;;;;;;12.36;55.00;101045.94;4380240;32;33526;-91
2021/03/31 03:20:52;;;;;;;9.38;5.85;;;;;;;12.37;54.76;101041.59;4380191;32;33740;-91
2021/03/31 03:23:20;;;;;;;11.40;6.65;;;;;;;12.40;54.76;101042.53;4367717;32;33809;-90
2021/03/31 03:25:53;;;;;;;14.95;6.82;;;;;;;12.33;54.79;101035.47;4392300;32;34758;-91
2021/03/31 03:28:21;;;;;;;11.48;7.45;;;;;;;12.42;54.58;101035.59;4392572;32;34226;-91
2021/03/31 03:30:49;;;;;;;14.45;6.65;;;;;;;12.17;54.99;101031.78;4392569;32;35099;-91
2021/03/31 03:33:17;;;;;;;12.93;6.53;;;;;;;12.11;55.37;101025.62;4380095;32;34234;-90
2021/03/31 03:35:44;;;;;;;10.45;7.18;;;;;;;12.16;55.08;101030.06;4391984;32;34053;-90
2021/03/31 03:38:14;;;;;;;12.32;6.75;;;;;;;12.15;55.09;101032.63;4380005;32;33465;-91
2021/03/31 03:40:45;;;;;;;11.40;6.22;;;;;;;12.25;54.78;101037.09;4392207;32;34391;-91
2021/03/31 03:43:16;;;;;;;13.88;6.85;;;;;;;12.11;54.90;101033.44;4368030;32;36406;-91
2021/03/31 03:45:44;;;;;;;10.83;6.53;;;;;;;12.17;54.70;101026.56;4392593;32;33689;-92
2021/03/31 03:48:12;;;;;;;9.27;6.32;;;;;;;12.18;54.49;101030.06;4380166;32;34238;-91
2021/03/31 03:50:39;;;;;;;8.18;5.93;;;;;;;12.20;54.48;101039.66;4355118;32;33182;-91
2021/03/31 03:53:07;;;;;;;12.90;6.47;;;;;;;12.16;54.51;101035.28;4380193;32;33977;-91
2021/03/31 03:55:34;;;;;;;14.50;7.62;;;;;;;11.84;55.42;101036.53;4392465;32;34110;-92
2021/03/31 03:58:07;;;;;;;13.25;7.75;;;;;;;11.84;55.36;101043.53;4392373;32;34162;-91
2021/03/31 04:00:36;;;;;;;18.42;7.95;;;;;;;11.76;55.43;101040.78;4389286;32;33410;-91
2021/03/31 04:03:04;;;;;;;11.20;7.82;;;;;;;11.83;55.36;101041.75;4377204;32;34435;-91
2021/03/31 04:05:31;;;;;;;12.37;7.30;;;;;;;11.97;55.00;101041.09;4389835;32;33721;-91
2021/03/31 04:07:58;;;;;;;13.98;7.53;;;;;;;11.92;54.75;101039.28;4364619;32;34660;-91
2021/03/31 04:10:28;;;;;;;18.85;8.15;;;;;;;11.72;55.38;101038.13;4376885;32;35686;-91
2021/03/31 04:12:57;;;;;;;12.43;7.50;;;;;;;11.87;55.05;101038.31;4352493;32;35612;-91
2021/03/31 04:15:25;;;;;;;14.93;7.85;;;;;;;11.94;54.51;101040.16;4364735;32;33952;-91
2021/03/31 04:17:52;;;;;;;11.38;7.68;;;;;;;11.94;54.47;101040.16;4389429;32;33104;-91
2021/03/31 04:20:22;;;;;;;13.00;7.35;;;;;;;11.97;54.48;101037.59;4376791;32;34566;-92
2021/03/31 04:22:50;;;;;;;11.23;7.12;;;;;;;11.76;54.85;101043.41;4364604;32;35085;-91
2021/03/31 04:25:20;;;;;;;12.32;6.85;;;;;;;11.98;54.45;101031.53;4389618;32;34315;-91
2021/03/31 04:27:48;;;;;;;10.45;6.43;;;;;;;11.88;54.59;101033.16;4364699;32;33853;-91
2021/03/31 04:30:17;;;;;;;14.65;5.70;;;;;;;11.80;54.78;101033.87;4376621;32;34222;-91
2021/03/31 04:32:48;;;;;;;13.40;6.47;;;;;;;11.94;54.57;101037.56;4377109;32;33468;-91
2021/03/31 04:35:20;;;;;;;11.10;6.32;;;;;;;12.00;54.13;101038.53;4364753;32;34656;-91
2021/03/31 04:37:49;;;;;;;11.40;5.85;;;;;;;12.04;54.11;101040.31;4364352;32;31964;-91
2021/03/31 04:40:18;;;;;;;13.18;6.57;;;;;;;11.87;54.43;101039.22;4364333;32;32699;-91
2021/03/31 04:42:45;;;;;;;11.07;6.12;;;;;;;12.00;54.32;101043.75;4388683;32;35188;-92
2021/03/31 04:45:13;;;;;;;9.32;5.80;;;;;;;12.02;54.34;101038.53;4389406;32;34840;-92
2021/03/31 04:47:41;;;;;;;11.45;6.32;;;;;;;12.08;54.20;101033.41;4376513;32;34015;-92
2021/03/31 04:50:10;;;;;;;13.02;6.05;;;;;;;11.89;54.67;101042.72;4364145;32;35021;-92
2021/03/31 04:52:38;;;;;;;10.30;6.37;;;;;;;11.94;54.72;101045.38;4364402;32;34326;-92
2021/03/31 04:55:07;;;;;;;8.88;6.07;;;;;;;11.96;54.69;101043.66;4377053;32;34378;-91
2021/03/31 04:57:34;;;;;;;12.75;6.78;;;;;;;11.96;54.96;101054.97;4351953;32;32266;-92
2021/03/31 05:00:05;;;;;;;11.23;6.32;;;;;;;11.90;54.90;101043.59;4376337;32;32920;-92
2021/03/31 05:02:32;;;;;;;11.98;6.50;;;;;;;11.96;54.63;101038.44;4391539;32;34316;-91
2021/03/31 05:04:59;;;;;;;13.27;7.10;;;;;;;11.74;55.00;101036.41;4366710;32;35230;-92
2021/03/31 05:07:26;;;;;;;13.18;6.30;;;;;;;11.87;54.86;101040.94;4391441;32;33315;-91
2021/03/31 05:09:54;;;;;;;12.37;6.82;;;;;;;11.88;54.76;101034.88;4391557;32;34865;-92
2021/03/31 05:12:21;;;;;;;20.05;6.62;;;;;;;11.89;54.94;101042.72;4379327;32;34821;-92
2021/03/31 05:14:49;;;;;;;18.10;7.00;;;;;;;12.01;54.70;101047.22;4354502;32;35106;-92
2021/03/31 05:17:16;;;;;;;13.02;6.65;;;;;;;12.09;54.42;101032.56;4379221;32;34136;-92
2021/03/31 05:19:44;;;;;;;15.90;7.50;;;;;;;12.11;54.41;101038.66;4391563;32;33701;-92
2021/03/31 05:22:11;;;;;;;13.88;7.78;;;;;;;12.11;54.37;101042.16;4366285;32;34710;-92
2021/03/31 05:24:39;;;;;;;10.18;6.72;;;;;;;12.03;54.70;101038.56;4378549;32;35263;-91
2021/03/31 05:27:07;;;;;;;15.98;7.45;;;;;;;12.11;54.51;101038.66;4366200;32;33325;-91
2021/03/31 05:29:34;;;;;;;14.65;8.00;;;;;;;12.14;54.60;101036.09;4391124;32;33665;-91
2021/03/31 05:32:03;;;;;;;11.75;7.53;;;;;;;12.22;54.66;101037.94;4390805;32;34156;-91
2021/03/31 05:34:30;;;;;;;15.85;8.02;;;;;;;12.53;53.26;101044.41;4378538;32;33532;-91
2021/03/31 05:36:58;;;;;;;12.30;7.70;;;;;;;12.25;53.76;101037.09;4354056;32;34192;-92
2021/03/31 05:39:26;;;;;;;14.65;7.80;;;;;;;12.41;53.57;101044.25;4366248;32;35190;-91
2021/03/31 05:41:53;;;;;;;18.37;8.00;;;;;;;12.67;52.95;101041.97;4365980;32;34751;-89
2021/03/31 05:44:21;;;;;;;14.52;8.25;;;;;;;12.82;52.70;101048.22;4378675;32;34717;-90
2021/03/31 05:46:51;;;;;;;14.87;8.70;;;;;;;12.98;52.25;101053.59;4378161;32;33563;-90
2021/03/31 05:49:19;;;;;;;15.07;8.20;;;;;;;12.88;52.24;101050.03;4378769;32;33878;-90
2021/03/31 05:51:46;;;;;;;15.57;8.50;;;;;;;13.13;52.04;101056.38;4378414;32;35328;-90
2021/03/31 05:54:14;;;;;;;14.65;7.87;;;;;;;13.21;52.20;101050.37;4378054;32;33343;-90
2021/03/31 05:56:41;;;;;;;13.95;7.75;;;;;;;13.52;51.25;101047.16;4380656;32;33276;-91
2021/03/31 05:59:10;;;;;;;11.88;7.82;;;;;;;13.74;50.57;101047.31;4384715;32;33770;-90
2021/03/31 06:01:38;;;;;;;15.35;8.88;;;;;;;13.56;50.93;101050.66;4367788;32;34654;-94
2021/03/31 06:04:06;;;;;;;22.30;7.45;;;;;;;13.87;50.67;101050.00;4382262;32;34139;-93
2021/03/31 06:06:33;;;;;;;12.70;7.25;;;;;;;13.94;50.29;101048.28;4381337;32;32640;-91
2021/03/31 06:09:06;;;;;;;15.80;7.65;;;;;;;14.36;49.36;101052.91;4393283;32;33977;-92
2021/03/31 06:11:51;;;;;;;15.95;7.12;;;;;;;14.16;49.56;101050.16;4356269;32;33522;-92
2021/03/31 06:14:36;;;;;;;10.90;7.28;;;;;;;14.21;49.69;101049.31;4393412;32;34175;-92
2021/03/31 06:17:09;;;;;;;11.20;7.05;;;;;;;14.39;49.59;101045.06;4368814;32;34399;-92
2021/03/31 06:19:42;;;;;;;15.57;7.93;;;;;;;14.81;48.90;101034.72;4383426;32;33869;-93
2021/03/31 06:22:29;;;;;;;15.93;7.68;;;;;;;14.95;48.48;101035.62;4384981;32;33629;-93
2021/03/31 06:25:17;;;;;;;14.13;7.80;;;;;;;15.12;48.10;101033.87;4382591;32;33942;-92
2021/03/31 06:27:55;;;;;;;14.32;7.93;;;;;;;15.44;47.25;101026.94;4380268;32;32575;-92
2021/03/31 06:30:23;;;;;;;14.25;7.28;;;;;;;15.29;47.77;101032.16;4380428;32;32642;-92
2021/03/31 06:32:53;;;;;;;12.13;7.97;;;;;;;15.79;46.51;101028.62;4392866;32;34437;-92
2021/03/31 06:35:24;;;;;;;16.17;7.70;;;;;;;16.05;45.40;101026.81;4380230;32;32967;-90
2021/03/31 06:38:09;;;;;;;12.43;7.70;;;;;;;16.24;44.98;101020.63;4390301;32;33552;-91
2021/03/31 06:40:44;;;;;;;11.70;6.75;;;;;;;16.45;44.92;101017.91;4378843;32;34657;-90
2021/03/31 06:43:38;;;;;;;13.07;7.60;;;;;;;16.66;46.17;101017.81;4392438;32;34926;-89
2021/03/31 06:46:13;;;;;;;11.57;6.20;;;;;;;16.68;43.86;101015.22;4377978;32;33504;-90
2021/03/31 06:48:47;;;;;;;10.27;6.95;;;;;;;17.05;42.31;101016.69;4377786;32;34096;-92
2021/03/31 06:51:28;;;;;;;14.65;7.53;;;;;;;17.10;41.59;101009.66;4365267;32;33463;-90
2021/03/31 06:53:56;;;;;;;13.90;7.82;;;;;;;17.22;42.08;101001.69;4377815;32;35058;-91
2021/03/31 06:56:28;;;;;;;11.60;6.60;;;;;;;17.40;41.34;101004.13;4377780;32;34704;-91
2021/03/31 06:59:01;;;;;;;12.75;5.97;;;;;;;17.48;40.23;101002.31;4365114;32;32952;-92
2021/03/31 07:01:34;;;;;;;10.32;5.57;;;;;;;17.69;39.70;101013.53;4377739;32;33727;-91
2021/03/31 07:04:05;;;;;;;11.07;6.32;;;;;;;17.88;40.09;101001.94;4383162;32;34761;-91
2021/03/31 07:06:32;;;;;;;9.32;6.37;;;;;;;18.08;39.18;101005.22;4379878;32;33721;-92
2021/03/31 07:09:00;;;;;;;14.75;6.37;;;;;;;18.04;39.75;101007.00;4364669;32;32740;-90
2021/03/31 07:11:45;;;;;;;13.95;6.57;;;;;;;18.16;39.64;101004.25;4377556;32;34935;-92
2021/03/31 07:14:13;;;;;;;14.48;7.00;;;;;;;18.04;39.79;101003.53;4364927;32;33029;-90
2021/03/31 07:16:42;;;;;;;12.63;5.60;;;;;;;18.35;39.98;101004.03;4377459;32;34477;-91
2021/03/31 07:19:13;;;;;;;9.25;5.57;;;;;;;18.28;39.05;101008.47;4377374;32;32735;-90
2021/03/31 07:22:13;;;;;;;11.02;5.32;;;;;;;18.68;38.19;101001.84;4378104;32;33758;-91
2021/03/31 07:24:41;;;;;;;10.63;5.43;;;;;;;18.70;37.94;100997.44;4377525;32;34935;-89
2021/03/31 07:27:09;;;;;;;8.75;5.40;;;;;;;18.86;37.82;100992.78;4367889;32;33107;-91
2021/03/31 07:30:05;;;;;;;11.23;5.20;;;;;;;19.24;36.63;100987.78;4392328;32;33314;-92
2021/03/31 07:32:34;;;;;;;14.87;5.00;;;;;;;19.24;36.30;100982.50;4377317;32;33710;-91
2021/03/31 07:35:02;;;;;;;8.82;5.15;;;;;;;19.23;37.18;100993.09;4365249;32;33782;-90
2021/03/31 07:37:32;;;;;;;9.73;5.10;;;;;;;19.32;36.06;100988.53;4377764;32;33973;-88
2021/03/31 07:40:01;;;;;;;12.35;4.68;;;;;;;19.50;36.81;100976.81;4377419;32;33482;-89
2021/03/31 07:42:29;;;;;;;9.77;4.40;;;;;;;19.07;36.52;100976.63;4391989;32;34102;-90
2021/03/31 07:45:02;;;;;;;10.23;4.25;;;;;;;19.51;36.59;100982.06;4379953;32;34491;-90
2021/03/31 07:47:33;;;;;;;12.98;4.68;;;;;;;19.65;36.26;100978.28;4355238;32;34726;-92
2021/03/31 07:50:01;;;;;;;9.10;4.65;;;;;;;19.72;36.20;100982.56;4367443;32;33123;-92
2021/03/31 07:52:52;;;;;;;9.23;4.25;;;;;;;19.75;36.71;100982.50;4379912;32;34116;-89
2021/03/31 07:55:42;;;;;;;7.75;3.58;;;;;;;20.07;35.10;100977.44;4392271;32;32544;-88
2021/03/31 07:58:12;;;;;;;7.50;3.83;;;;;;;20.02;38.89;100987.25;4379679;32;34765;-92
2021/03/31 08:00:47;;;;;;;10.20;4.20;;;;;;;20.03;36.18;100986.34;4379725;32;33726;-92
2021/03/31 08:03:35;;;;;;;9.88;4.35;;;;;;;20.32;35.59;100988.44;4391241;32;33831;-92
2021/03/31 08:06:07;;;;;;;7.22;3.37;;;;;;;20.77;33.96;100990.94;4391154;32;34260;-92
2021/03/31 08:08:52;;;;;;;9.75;3.85;;;;;;;20.42;34.98;100985.53;4367418;32;34051;-93
2021/03/31 08:11:40;;;;;;;5.68;3.33;;;;;;;20.11;36.02;100987.91;4379652;32;34419;-94
2021/03/31 08:14:10;;;;;;;7.12;3.05;;;;;;;20.54;35.36;100987.91;4367417;32;35001;-91
2021/03/31 08:16:41;;;;;;;7.90;3.20;;;;;;;20.55;35.83;100987.03;4392070;32;34386;-93
2021/03/31 08:19:20;;;;;;;8.18;3.35;;;;;;;21.04;38.16;100989.37;4379479;32;34769;-90
2021/03/31 08:21:49;;;;;;;16.23;3.72;;;;;;;21.18;37.63;100982.00;4392106;32;34235;-92
2021/03/31 08:24:17;;;;;;;6.47;3.62;;;;;;;21.24;34.58;100979.22;4367457;32;34478;-93
2021/03/31 08:27:06;;;;;;;8.07;3.50;;;;;;;21.20;34.04;100982.87;4379794;32;35164;-92
2021/03/31 08:29:34;;;;;;;4.65;3.35;;;;;;;21.22;35.00;100978.41;4367258;32;35694;-92
2021/03/31 08:32:05;;;;;;;10.50;4.32;;;;;;;21.59;33.76;100975.66;4393174;32;33414;-92
2021/03/31 08:34:34;;;;;;;8.45;3.78;;;;;;;21.34;34.77;100977.22;4392117;32;35482;-93
2021/03/31 08:37:04;;;;;;;12.50;4.40;;;;;;;21.29;34.31;100966.75;4379281;32;36442;-93
2021/03/31 08:39:32;;;;;;;11.10;4.50;;;;;;;21.29;34.32;100971.19;4392456;32;33598;-94
2021/03/31 08:42:52;;;;;;;6.68;3.70;;;;;;;21.55;34.34;100966.94;4379498;32;34270;-95
2021/03/31 08:45:42;;;;;;;6.62;3.87;;;;;;;21.57;34.84;100964.25;4393223;32;33677;-92
2021/03/31 08:48:42;;;;;;;7.78;4.40;;;;;;;21.69;34.86;100961.28;4394290;32;35409;-94
2021/03/31 08:51:13;;;;;;;11.65;4.78;;;;;;;21.78;34.30;100958.38;4394449;32;34836;-93
2021/03/31 08:53:41;;;;;;;11.82;4.47;;;;;;;22.10;33.34;100958.38;4394254;32;35151;-92
2021/03/31 08:56:22;;;;;;;9.10;4.45;;;;;;;21.89;33.38;100961.63;4381635;32;34327;-91
2021/03/31 08:58:54;;;;;;;6.53;4.53;;;;;;;21.76;33.17;100964.62;4406910;32;35149;-92
2021/03/31 09:01:30;;;;;;;7.87;4.70;;;;;;;21.51;34.36;100953.84;4406810;32;34044;-91
2021/03/31 09:04:19;;;;;;;8.57;4.93;;;;;;;21.49;33.91;100951.22;4393787;32;33335;-91
2021/03/31 09:06:47;;;;;;;8.32;4.57;;;;;;;21.72;34.61;100955.91;4381464;32;32926;-91
2021/03/31 09:09:14;;;;;;;12.88;5.37;;;;;;;21.66;33.81;100950.75;4407182;32;34225;-92
2021/03/31 09:11:42;;;;;;;7.10;4.45;;;;;;;21.94;33.58;100946.47;4381113;32;34327;-92
2021/03/31 09:14:20;;;;;;;7.22;5.05;;;;;;;21.96;34.09;100947.31;4394418;32;33023;-92
2021/03/31 09:17:00;;;;;;;7.15;4.90;;;;;;;21.88;33.29;100948.41;4381413;32;36390;-92
2021/03/31 09:19:30;;;;;;;9.00;5.32;;;;;;;22.03;33.49;100943.56;4391152;32;33080;-91
2021/03/31 09:22:04;;;;;;;10.80;5.70;;;;;;;22.02;32.82;100940.94;4391416;32;34051;-91
2021/03/31 09:24:31;;;;;;;9.75;5.60;;;;;;;22.21;32.55;100936.84;4378762;32;35681;-91
2021/03/31 09:27:06;;;;;;;8.55;4.87;;;;;;;22.05;32.75;100936.44;4396080;32;33901;-92
2021/03/31 09:29:35;;;;;;;8.80;5.07;;;;;;;22.07;32.84;100926.66;4394654;32;33947;-91
2021/03/31 09:32:05;;;;;;;11.95;5.78;;;;;;;22.37;32.83;100927.50;4408386;32;34070;-91
2021/03/31 09:34:34;;;;;;;15.33;5.50;;;;;;;22.11;33.01;100928.31;4383330;32;33892;-91
2021/03/31 09:37:07;;;;;;;7.90;5.45;;;;;;;22.25;33.08;100926.09;4408547;32;33671;-91
2021/03/31 09:39:42;;;;;;;8.63;5.18;;;;;;;22.45;33.14;100924.63;4370796;32;33307;-90
2021/03/31 09:42:24;;;;;;;8.93;5.65;;;;;;;22.40;32.49;100922.13;4383016;32;34111;-91
2021/03/31 09:44:53;;;;;;;11.25;5.80;;;;;;;22.54;31.84;100905.78;4394905;32;33376;-90
2021/03/31 09:47:23;;;;;;;7.90;5.28;;;;;;;22.41;33.05;100912.41;4395456;32;33693;-90
2021/03/31 09:49:54;;;;;;;7.55;4.72;;;;;;;22.47;32.77;100906.88;4382734;32;35997;-90
2021/03/31 09:52:27;;;;;;;11.50;6.03;;;;;;;22.64;32.97;100905.47;4382974;32;34373;-90
2021/03/31 09:55:15;;;;;;;11.20;5.60;;;;;;;22.83;32.53;100901.31;4382779;32;34152;-89
2021/03/31 09:57:48;;;;;;;10.02;6.03;;;;;;;22.98;32.52;100893.75;4409255;32;33781;-90
2021/03/31 10:00:17;;;;;;;9.88;5.50;;;;;;;23.10;32.39;100893.34;4395298;32;36068;-90
2021/03/31 10:02:45;;;;;;;10.48;6.20;;;;;;;23.12;32.22;100897.69;4395760;32;35003;-90
2021/03/31 10:05:22;;;;;;;14.38;5.55;;;;;;;23.13;31.86;100886.12;4408001;32;33931;-89
2021/03/31 10:08:04;;;;;;;14.65;6.35;;;;;;;23.17;32.61;100887.78;4382961;32;34504;-90
2021/03/31 10:10:41;;;;;;;11.32;6.72;;;;;;;23.45;31.73;100885.94;4383121;32;34352;-90
2021/03/31 10:13:10;;;;;;;10.35;7.45;;;;;;;23.12;32.21;100878.25;4382942;32;36064;-90
2021/03/31 10:15:42;;;;;;;9.90;6.95;;;;;;;23.32;32.05;100879.28;4407387;32;34772;-92
2021/03/31 10:18:11;;;;;;;11.98;7.35;;;;;;;23.22;32.14;100872.56;4370786;32;34454;-90
2021/03/31 10:20:45;;;;;;;16.30;7.87;;;;;;;23.39;32.29;100864.03;4395495;32;34271;-92
2021/03/31 10:23:36;;;;;;;19.67;8.13;;;;;;;23.51;32.42;100871.53;4395761;32;33879;-92
2021/03/31 10:26:26;;;;;;;10.68;6.57;;;;;;;23.45;32.65;100869.12;4384535;32;35071;-92
2021/03/31 10:29:06;;;;;;;16.33;7.87;;;;;;;23.71;32.26;100868.16;4383795;32;35478;-91
2021/03/31 10:31:44;;;;;;;11.12;6.80;;;;;;;23.91;31.11;100860.31;4396739;32;34671;-92
2021/03/31 10:34:15;;;;;;;12.93;6.47;;;;;;;23.95;33.57;100859.28;4383728;32;34672;-91
2021/03/31 10:36:46;;;;;;;12.18;7.28;;;;;;;24.06;31.78;100855.31;4382709;32;34128;-90
2021/03/31 10:48:14;;;;;;;16.58;7.45;;;;;;;24.08;31.13;100839.31;4397612;32;33461;-92
2021/03/31 10:53:12;;;;;;;10.35;7.93;;;;;;;23.73;32.16;100837.09;4407568;32;36841;-88
2021/03/31 10:55:42;;;;;;;13.60;8.43;;;;;;;23.46;32.42;100831.03;4382607;32;36183;-88
2021/03/31 10:58:11;;;;;;;14.25;8.35;;;;;;;23.39;32.55;100825.06;4383779;32;33520;-90
2021/03/31 11:00:38;;;;;;;14.77;8.13;;;;;;;23.91;32.22;100828.44;4408684;32;34574;-89
2021/03/31 11:03:21;;;;;;;13.60;8.60;;;;;;;24.13;31.43;100824.03;4396712;32;35734;-89
2021/03/31 11:05:53;;;;;;;12.82;8.98;;;;;;;24.29;30.97;100814.53;4383877;32;34755;-89
2021/03/31 11:08:21;;;;;;;18.40;7.90;;;;;;;24.39;30.72;100812.38;4383150;32;33297;-89
2021/03/31 11:10:50;;;;;;;14.73;8.82;;;;;;;23.98;31.73;100806.91;4382739;32;34376;-89
2021/03/31 11:13:18;;;;;;;12.70;8.23;;;;;;;23.65;32.76;100816.16;4395325;32;34803;-89
2021/03/31 11:15:45;;;;;;;11.35;7.80;;;;;;;24.19;31.50;100803.41;4395340;32;33967;-89
2021/03/31 11:25:57;;;;;;;11.32;7.50;;;;;;;24.13;31.97;100797.44;4381957;32;34689;-89
2021/03/31 11:28:25;;;;;;;13.40;7.70;;;;;;;24.27;31.71;100781.81;4382461;32;32794;-90
2021/03/31 11:30:53;;;;;;;14.70;7.72;;;;;;;24.21;31.12;100782.94;4394907;32;34932;-88
2021/03/31 11:33:23;;;;;;;11.32;7.20;;;;;;;23.83;31.81;100780.03;4382417;32;35285;-90
2021/03/31 11:35:58;;;;;;;10.45;7.45;;;;;;;24.19;31.38;100778.63;4409792;32;34214;-88
2021/03/31 11:38:25;;;;;;;10.30;6.62;;;;;;;24.32;30.80;100771.03;4392267;32;34521;-88
2021/03/31 11:40:53;;;;;;;7.32;5.55;;;;;;;24.16;31.03;100774.28;4383969;32;34495;-88
2021/03/31 11:43:20;;;;;;;9.75;5.55;;;;;;;24.52;30.48;100777.22;4394841;32;34848;-90
2021/03/31 11:45:48;;;;;;;11.48;6.80;;;;;;;24.43;30.53;100774.97;4407478;32;33858;-90
2021/03/31 11:48:15;;;;;;;12.18;6.72;;;;;;;24.40;30.75;100772.41;4394680;32;32579;-88
2021/03/31 11:50:43;;;;;;;11.52;6.20;;;;;;;24.40;30.58;100772.41;4408587;32;33076;-92
2021/03/31 11:53:10;;;;;;;7.70;5.57;;;;;;;24.03;31.57;100770.34;4396390;32;35190;-91
2021/03/31 11:55:37;;;;;;;6.43;5.07;;;;;;;24.31;31.16;100761.31;4389991;32;34429;-89
2021/03/31 11:58:05;;;;;;;9.02;5.37;;;;;;;24.24;31.34;100766.00;4392176;32;35239;-90
2021/03/31 12:00:36;;;;;;;9.25;5.60;;;;;;;24.23;31.84;100756.28;4391911;32;34452;-91